sensor_id;sensor_type;location;lat;lon;timestamp;P1;durP1;ratioP1;P2;durP2;ratioP2
44995;SDS011;30729;49.486;10.792;2023-11-21T15:54:28;10.02;;;4.60;;
44995;SDS011;30729;49.486;10.792;2023-11-21T15:56:55;9.50;;;4.43;;
44995;SDS011;30729;49.486;10.792;2023-11-21T15:59:42;7.95;;;3.65;;
44995;SDS011;30729;49.486;10.792;2023-11-21T16:02:39;8.80;;;4.38;;
44995;SDS011;30729;49.486;10.792;2023-11-21T16:06:04;10.65;;;6.00;;
44995;SDS011;30729;49.486;10.792;2023-11-21T16:12:54;17.85;;;7.10;;
44995;SDS011;30729;49.486;10.792;2023-11-21T16:16:20;14.60;;;8.02;;
44995;SDS011;30729;49.486;10.792;2023-11-21T16:19:14;21.77;;;8.48;;
44995;SDS011;30729;49.486;10.792;2023-11-21T16:22:40;20.50;;;9.80;;
44995;SDS011;30729;49.486;10.792;2023-11-21T16:26:03;25.60;;;11.63;;
44995;SDS011;30729;49.486;10.792;2023-11-21T16:29:29;25.80;;;11.68;;
44995;SDS011;30729;49.486;10.792;2023-11-21T16:32:52;16.55;;;8.32;;
44995;SDS011;30729;49.486;10.792;2023-11-21T16:36:16;18.13;;;7.93;;
44995;SDS011;30729;49.486;10.792;2023-11-21T16:39:41;17.08;;;8.20;;
44995;SDS011;30729;49.486;10.792;2023-11-21T16:43:05;19.85;;;8.48;;
44995;SDS011;30729;49.486;10.792;2023-11-21T16:46:30;16.98;;;6.43;;
44995;SDS011;30729;49.486;10.792;2023-11-21T16:49:54;14.65;;;7.30;;
44995;SDS011;30729;49.486;10.792;2023-11-21T16:53:18;15.80;;;7.35;;
44995;SDS011;30729;49.486;10.792;2023-11-21T16:56:42;14.15;;;6.93;;
44995;SDS011;30729;49.486;10.792;2023-11-21T17:00:06;16.70;;;8.88;;
44995;SDS011;30729;49.486;10.792;2023-11-21T17:06:57;13.77;;;7.50;;
44995;SDS011;30729;49.486;10.792;2023-11-21T17:10:21;14.38;;;6.82;;
44995;SDS011;30729;49.486;10.792;2023-11-21T17:13:45;16.33;;;8.48;;
44995;SDS011;30729;49.486;10.792;2023-11-21T17:17:11;20.23;;;7.70;;
44995;SDS011;30729;49.486;10.792;2023-11-21T17:20:36;17.35;;;8.23;;
44995;SDS011;30729;49.486;10.792;2023-11-21T17:24:01;11.43;;;6.28;;
44995;SDS011;30729;49.486;10.792;2023-11-21T17:27:26;14.00;;;6.20;;
44995;SDS011;30729;49.486;10.792;2023-11-21T17:30:50;12.38;;;5.88;;
44995;SDS011;30729;49.486;10.792;2023-11-21T17:34:14;14.68;;;5.43;;
44995;SDS011;30729;49.486;10.792;2023-11-21T17:37:38;12.00;;;6.03;;
44995;SDS011;30729;49.486;10.792;2023-11-21T17:41:03;9.77;;;5.13;;
44995;SDS011;30729;49.486;10.792;2023-11-21T17:44:26;12.60;;;5.30;;
44995;SDS011;30729;49.486;10.792;2023-11-21T17:47:50;17.33;;;6.78;;
44995;SDS011;30729;49.486;10.792;2023-11-21T17:51:17;10.23;;;5.50;;
44995;SDS011;30729;49.486;10.792;2023-11-21T17:54:40;12.25;;;4.93;;
44995;SDS011;30729;49.486;10.792;2023-11-21T17:58:05;10.23;;;4.68;;
44995;SDS011;30729;49.486;10.792;2023-11-21T18:01:31;19.55;;;7.65;;
44995;SDS011;30729;49.486;10.792;2023-11-21T18:04:58;12.93;;;5.35;;
44995;SDS011;30729;49.486;10.792;2023-11-21T18:08:22;10.98;;;4.75;;
44995;SDS011;30729;49.486;10.792;2023-11-21T18:11:46;14.02;;;4.63;;
44995;SDS011;30729;49.486;10.792;2023-11-21T18:15:10;16.95;;;7.45;;
44995;SDS011;30729;49.486;10.792;2023-11-21T18:18:33;18.40;;;6.97;;
44995;SDS011;30729;49.486;10.792;2023-11-21T18:21:57;12.63;;;5.65;;
44995;SDS011;30729;49.486;10.792;2023-11-21T18:25:21;12.68;;;5.72;;
44995;SDS011;30729;49.486;10.792;2023-11-21T18:28:45;11.93;;;5.60;;
44995;SDS011;30729;49.486;10.792;2023-11-21T18:32:09;9.98;;;5.40;;
44995;SDS011;30729;49.486;10.792;2023-11-21T18:35:32;15.40;;;6.57;;
44995;SDS011;30729;49.486;10.792;2023-11-21T18:38:56;10.23;;;5.38;;
44995;SDS011;30729;49.486;10.792;2023-11-21T18:42:20;12.60;;;5.20;;
44995;SDS011;30729;49.486;10.792;2023-11-21T18:45:44;15.18;;;6.80;;
44995;SDS011;30729;49.486;10.792;2023-11-21T18:49:07;11.88;;;5.88;;
44995;SDS011;30729;49.486;10.792;2023-11-21T18:52:33;13.35;;;7.25;;
44995;SDS011;30729;49.486;10.792;2023-11-21T18:55:58;13.25;;;5.38;;
44995;SDS011;30729;49.486;10.792;2023-11-21T18:59:22;18.20;;;5.55;;
44995;SDS011;30729;49.486;10.792;2023-11-21T19:02:47;12.73;;;6.00;;
44995;SDS011;30729;49.486;10.792;2023-11-21T19:06:11;9.48;;;4.85;;
44995;SDS011;30729;49.486;10.792;2023-11-21T19:09:35;11.93;;;6.10;;
44995;SDS011;30729;49.486;10.792;2023-11-21T19:12:59;10.68;;;5.65;;
44995;SDS011;30729;49.486;10.792;2023-11-21T19:16:23;11.13;;;4.78;;
44995;SDS011;30729;49.486;10.792;2023-11-21T19:19:47;15.13;;;4.93;;
44995;SDS011;30729;49.486;10.792;2023-11-21T19:23:11;10.30;;;5.10;;
44995;SDS011;30729;49.486;10.792;2023-11-21T19:26:37;13.57;;;6.20;;
44995;SDS011;30729;49.486;10.792;2023-11-21T19:33:26;8.52;;;4.85;;
44995;SDS011;30729;49.486;10.792;2023-11-21T19:36:50;16.77;;;8.00;;
44995;SDS011;30729;49.486;10.792;2023-11-21T19:40:15;10.82;;;6.60;;
44995;SDS011;30729;49.486;10.792;2023-11-21T19:43:43;13.13;;;5.75;;
44995;SDS011;30729;49.486;10.792;2023-11-21T19:47:08;11.43;;;5.82;;
44995;SDS011;30729;49.486;10.792;2023-11-21T19:50:33;10.60;;;6.13;;
